Johannesburg, South Africa
Current Conditions -  °F | °C
As of 6:30 PM on Monday 24 Nov 2014 (Local Time) from FAOR Reporting Station
Rain Showers Rain Showers  
Wind Chill: 57°   Ceiling: 4500
Heat Index: 57°   Visibility: 6mi
Dew Point: 50°   Wind: 21mph
Humidity: 77%   Direction: 190°S
Pressure: 30.27"   Gusts: NA
Location:  26.19°S, 28.04°E
Report Text: FAOR 241630Z 19018KT 9999 -SHRA SCT014 SCT040TCU BKN045TCU 14/10 Q1025 NOSIG
Loading
Personal Weather Stations






























Interactive Weather Map New forecast layout! Learn more

10-Day Weather Forecast

Advertisements
Track Severe Weather on mobile